Time;durP1;ratioP1;P1;durP2;ratioP2;P2;SDS_P1;SDS_P2;PMS_P1;PMS_P2;Temp;Humidity;BMP_temperature;BMP_pressure;BME280_temperature;BME280_humidity;BME280_pressure;Samples;Min_cycle;Max_cycle;Signal;HPM_P1;HPM_P2
2021/01/29 00:00:52;;;;;;;23.40;11.08;;;;;;;-1.85;75.09;98940.34;1664685;83;26535;-80
2021/01/29 00:03:20;;;;;;;21.80;9.83;;;;;;;-1.87;75.07;98939.66;1698268;84;25715;-80
2021/01/29 00:05:54;;;;;;;25.10;10.35;;;;;;;-1.89;75.18;98932.42;1667650;84;27349;-80
2021/01/29 00:08:24;;;;;;;23.02;10.45;;;;;;;-1.90;75.17;98938.63;1665835;84;26064;-80
2021/01/29 00:10:53;;;;;;;22.27;10.35;;;;;;;-1.97;75.21;98924.00;1660934;83;25426;-80
2021/01/29 00:13:23;;;;;;;15.32;7.60;;;;;;;-1.94;75.17;98928.10;1689413;83;26006;-80
2021/01/29 00:15:51;;;;;;;24.32;9.65;;;;;;;-1.98;75.22;98926.75;1691448;82;25890;-80
2021/01/29 00:18:20;;;;;;;21.80;10.20;;;;;;;-2.00;75.29;98928.22;1641293;84;28497;-80
2021/01/29 00:20:48;;;;;;;16.40;7.20;;;;;;;-2.03;75.39;98932.95;1640635;85;26164;-81
2021/01/29 00:23:17;;;;;;;18.55;7.97;;;;;;;-2.09;75.45;98922.55;1666059;84;26129;-80
2021/01/29 00:25:49;;;;;;;21.27;8.35;;;;;;;-2.13;75.74;98925.60;1665976;84;25911;-80
2021/01/29 00:28:17;;;;;;;23.18;10.00;;;;;;;-2.13;75.84;98924.30;1698389;84;25832;-80
2021/01/29 00:30:46;;;;;;;26.82;10.38;;;;;;;-2.13;75.84;98924.30;1667864;84;27548;-80
2021/01/29 00:33:15;;;;;;;21.55;9.55;;;;;;;-2.19;75.96;98912.61;1684070;82;25387;-80
2021/01/29 00:35:43;;;;;;;20.10;8.48;;;;;;;-2.11;76.08;98915.31;1663913;84;25433;-80
2021/01/29 00:38:11;;;;;;;19.10;8.70;;;;;;;-2.14;75.89;98923.97;1653633;85;25902;-80
2021/01/29 00:40:38;;;;;;;18.80;8.80;;;;;;;-2.14;75.89;98923.97;1638320;84;26376;-80
2021/01/29 00:43:07;;;;;;;19.77;8.53;;;;;;;-2.11;76.24;98924.48;1662484;84;27616;-80
2021/01/29 00:45:37;;;;;;;18.00;9.80;;;;;;;-2.16;76.24;98917.54;1649274;84;25843;-80
2021/01/29 00:48:07;;;;;;;19.10;8.23;;;;;;;-2.16;76.24;98917.54;1679378;82;26438;-80
2021/01/29 00:50:35;;;;;;;19.95;8.15;;;;;;;-2.10;76.27;98925.32;1677397;82;26440;-80
2021/01/29 00:53:03;;;;;;;19.30;8.38;;;;;;;-2.09;76.52;98921.23;1664573;84;25393;-80
2021/01/29 00:55:31;;;;;;;20.85;9.40;;;;;;;-2.06;76.53;98921.42;1666773;84;28087;-80
2021/01/29 00:58:00;;;;;;;24.30;8.18;;;;;;;-2.02;76.53;98925.40;1636866;85;26125;-80
2021/01/29 01:00:37;;;;;;;17.60;8.25;;;;;;;-1.95;76.54;98923.36;1839120;77;25807;-80
2021/01/29 01:03:06;;;;;;;15.70;8.45;;;;;;;-1.97;76.58;98923.17;1767276;79;25945;-80
2021/01/29 01:05:33;;;;;;;18.02;7.97;;;;;;;-1.96;76.67;98916.93;1791742;79;27618;-80
2021/01/29 01:08:01;;;;;;;17.62;8.63;;;;;;;-1.96;76.68;98918.24;1746985;79;25836;-80
2021/01/29 01:10:48;;;;;;;20.08;8.20;;;;;;;-1.96;76.74;98915.14;1770097;79;25901;-80
2021/01/29 01:13:22;;;;;;;20.77;7.58;;;;;;;-1.94;76.74;98918.44;1768689;78;25800;-80
2021/01/29 01:16:08;;;;;;;16.10;7.53;;;;;;;-1.92;76.90;98916.48;1794557;78;25770;-81
2021/01/29 01:18:36;;;;;;;17.32;7.75;;;;;;;-1.91;76.88;98923.88;1786386;79;29030;-81
2021/01/29 01:21:11;;;;;;;22.90;9.33;;;;;;;-1.90;76.97;98931.59;1755218;80;26146;-80
2021/01/29 01:23:40;;;;;;;20.95;9.60;;;;;;;-1.90;76.92;98932.91;1763478;78;25423;-80
2021/01/29 01:26:08;;;;;;;20.08;8.50;;;;;;;-1.88;77.15;98926.22;1794490;78;25712;-80
2021/01/29 01:28:57;;;;;;;13.75;6.60;;;;;;;-1.80;77.10;98932.85;1790974;79;25823;-80
2021/01/29 01:31:25;;;;;;;15.63;7.92;;;;;;;-1.86;77.19;98923.76;1732918;80;26153;-80
2021/01/29 01:33:54;;;;;;;21.85;9.00;;;;;;;-1.85;77.19;98932.47;1766597;80;27707;-80
2021/01/29 01:36:26;;;;;;;19.45;9.90;;;;;;;-1.86;77.46;98921.14;1712287;80;25906;-80
2021/01/29 01:38:55;;;;;;;14.68;6.70;;;;;;;-1.80;77.36;98929.75;1748374;81;25843;-80
2021/01/29 01:41:23;;;;;;;20.08;8.43;;;;;;;-1.80;77.36;98929.75;1747280;80;25784;-80
2021/01/29 01:43:52;;;;;;;17.00;8.13;;;;;;;-1.77;77.29;98932.53;1743574;80;25650;-80
2021/01/29 01:46:42;;;;;;;14.98;7.60;;;;;;;-1.71;77.31;98918.33;1813664;78;25722;-80
2021/01/29 01:49:26;;;;;;;15.63;7.50;;;;;;;-1.73;77.10;98920.77;1730237;80;25894;-80
2021/01/29 01:52:13;;;;;;;17.23;7.25;;;;;;;-1.73;77.10;98920.77;1780131;79;27506;-80
2021/01/29 01:55:14;;;;;;;17.25;6.53;;;;;;;-1.71;77.37;98920.95;1749929;80;25710;-82
2021/01/29 01:57:47;;;;;;;19.30;8.80;;;;;;;-1.72;77.30;98925.87;1751748;80;25737;-80
2021/01/29 02:00:24;;;;;;;15.03;7.37;;;;;;;-1.72;77.41;98932.45;1782411;80;25792;-80
2021/01/29 02:03:04;;;;;;;19.15;7.47;;;;;;;-1.70;77.34;98925.72;1749761;80;26399;-80
2021/01/29 02:05:50;;;;;;;14.87;7.85;;;;;;;-1.69;77.39;98928.19;1746392;79;27549;-80
2021/01/29 02:08:35;;;;;;;15.23;6.60;;;;;;;-1.63;77.44;98921.53;1844497;77;25819;-80
2021/01/29 02:11:22;;;;;;;16.45;6.65;;;;;;;-1.66;77.55;98926.59;1785116;78;25366;-80
2021/01/29 02:13:59;;;;;;;14.90;6.53;;;;;;;-1.58;77.43;98932.38;1815832;77;25912;-80
2021/01/29 02:16:39;;;;;;;15.50;7.30;;;;;;;-1.64;77.26;98931.20;1698317;80;26677;-80
2021/01/29 02:20:05;;;;;;;13.85;6.22;;;;;;;-1.62;77.44;98927.10;1701960;80;27358;-80
2021/01/29 02:22:40;;;;;;;13.78;7.03;;;;;;;-1.62;77.50;98921.84;1752202;80;26126;-80
2021/01/29 02:25:40;;;;;;;18.32;7.12;;;;;;;-1.62;77.50;98921.84;1753006;80;25726;-80
2021/01/29 02:28:14;;;;;;;11.00;6.15;;;;;;;-1.61;77.52;98916.95;1722178;80;26018;-80
2021/01/29 02:31:39;;;;;;;13.20;6.25;;;;;;;-1.54;77.31;98908.81;1804991;77;25728;-80
2021/01/29 02:34:45;;;;;;;16.85;7.03;;;;;;;-1.60;77.44;98914.17;1751543;80;25857;-80
2021/01/29 02:37:31;;;;;;;11.10;5.47;;;;;;;-1.60;77.33;98901.52;1739437;80;27345;-80
2021/01/29 02:40:24;;;;;;;15.40;6.00;;;;;;;-1.61;77.51;98904.66;1740792;82;25899;-79
2021/01/29 02:43:09;;;;;;;12.95;6.08;;;;;;;-1.61;77.51;98904.66;1741399;82;25852;-80
2021/01/29 02:46:06;;;;;;;9.85;5.45;;;;;;;-1.60;77.56;98897.58;1718631;82;25647;-80
2021/01/29 02:49:08;;;;;;;13.28;6.40;;;;;;;-1.61;77.67;98894.16;1719689;80;25431;-79
2021/01/29 02:52:12;;;;;;;11.65;5.87;;;;;;;-1.52;77.75;98892.91;1845015;77;26412;-80
2021/01/29 02:55:13;;;;;;;16.70;6.10;;;;;;;-1.58;77.70;98891.69;1794176;78;25834;-80
2021/01/29 02:58:18;;;;;;;15.50;8.58;;;;;;;-1.51;77.75;98895.84;1749964;79;28032;-79
2021/01/29 03:01:12;;;;;;;15.48;6.83;;;;;;;-1.37;77.28;98896.64;1734315;80;26011;-80
2021/01/29 03:04:03;;;;;;;13.08;5.58;;;;;;;-1.44;77.50;98893.80;1732152;80;27392;-80
2021/01/29 03:06:45;;;;;;;15.05;6.20;;;;;;;-1.39;77.57;98903.33;1843304;77;25646;-80
2021/01/29 03:09:27;;;;;;;19.50;6.15;;;;;;;-1.46;77.73;98908.05;1798785;78;25316;-80
2021/01/29 03:12:30;;;;;;;12.15;5.90;;;;;;;-1.48;77.64;98905.58;1776271;78;27384;-81
2021/01/29 03:15:24;;;;;;;17.05;7.45;;;;;;;-1.46;77.79;98908.05;1796133;78;25718;-80
2021/01/29 03:18:20;;;;;;;11.40;6.65;;;;;;;-1.46;77.87;98902.80;1780797;79;25692;-80
2021/01/29 03:21:20;;;;;;;9.50;4.85;;;;;;;-1.44;77.89;98895.11;1776301;78;25344;-80
2021/01/29 03:24:32;;;;;;;13.45;7.20;;;;;;;-1.43;77.86;98895.94;1716221;81;25759;-80
2021/01/29 03:27:27;;;;;;;15.48;5.03;;;;;;;-1.44;77.79;98891.65;1742237;81;27533;-80
2021/01/29 03:30:18;;;;;;;12.55;5.55;;;;;;;-1.46;77.96;98883.10;1728307;80;25839;-80
2021/01/29 03:33:16;;;;;;;9.90;5.35;;;;;;;-1.40;78.01;98881.17;1835418;77;25738;-81
2021/01/29 03:36:06;;;;;;;9.45;4.97;;;;;;;-1.46;78.11;98888.35;1785601;78;26469;-79
2021/01/29 03:39:00;;;;;;;11.38;5.12;;;;;;;-1.50;78.16;98889.16;1766846;79;27513;-80
2021/01/29 03:41:54;;;;;;;10.40;5.90;;;;;;;-1.50;78.16;98889.16;1793681;78;26655;-80
2021/01/29 03:45:10;;;;;;;13.55;5.45;;;;;;;-1.42;78.19;98897.57;1836466;77;26331;-80
2021/01/29 03:48:23;;;;;;;9.03;5.00;;;;;;;-1.48;78.25;98887.68;1710558;80;25872;-80
2021/01/29 03:51:17;;;;;;;11.63;5.30;;;;;;;-1.51;78.30;98885.34;1761212;80;27517;-80
2021/01/29 03:54:25;;;;;;;12.18;6.05;;;;;;;-1.48;78.34;98882.43;1775199;79;26382;-80
2021/01/29 03:57:21;;;;;;;16.50;6.30;;;;;;;-1.51;78.34;98880.93;1767026;80;25332;-80
2021/01/29 04:00:36;;;;;;;14.73;5.80;;;;;;;-1.44;78.40;98892.96;1753419;80;25771;-80
2021/01/29 04:03:45;;;;;;;10.48;5.33;;;;;;;-1.42;78.45;98892.31;1743926;80;25790;-80
2021/01/29 04:06:39;;;;;;;9.38;5.15;;;;;;;-1.40;78.37;98890.36;1764317;80;28544;-80
2021/01/29 04:09:32;;;;;;;12.03;5.60;;;;;;;-1.37;78.39;98892.70;1767229;80;25669;-81
2021/01/29 04:12:17;;;;;;;13.75;6.40;;;;;;;-1.32;78.29;98891.25;1832542;77;25702;-80
2021/01/29 04:15:25;;;;;;;13.45;5.58;;;;;;;-1.35;78.26;98890.74;1767576;78;25367;-80
2021/01/29 04:18:22;;;;;;;11.60;5.25;;;;;;;-1.37;78.19;98889.59;1757129;80;27339;-80
2021/01/29 04:21:21;;;;;;;8.28;4.80;;;;;;;-1.38;78.17;98886.61;1763863;80;25557;-80
2021/01/29 04:24:09;;;;;;;8.43;4.15;;;;;;;-1.36;78.50;98890.39;1742267;81;25962;-80
2021/01/29 04:26:44;;;;;;;10.70;5.50;;;;;;;-1.36;78.50;98890.39;1713871;82;25836;-81
2021/01/29 04:29:23;;;;;;;10.98;4.92;;;;;;;-1.38;78.29;98890.55;1709493;82;26054;-79
2021/01/29 04:31:55;;;;;;;9.60;4.75;;;;;;;-1.38;78.29;98890.55;1731321;81;27549;-80
2021/01/29 04:34:27;;;;;;;7.92;3.72;;;;;;;-1.39;78.31;98890.20;1659938;83;25938;-80
2021/01/29 04:36:59;;;;;;;7.85;4.05;;;;;;;-1.38;78.25;98887.92;1705261;82;25871;-80
2021/01/29 04:39:40;;;;;;;9.03;4.80;;;;;;;-1.36;78.18;98887.28;1718906;82;25909;-80
2021/01/29 04:42:37;;;;;;;7.55;4.22;;;;;;;-1.36;78.18;98887.28;1717367;82;25935;-80
2021/01/29 04:45:34;;;;;;;10.40;5.03;;;;;;;-1.33;78.28;98887.47;1718411;82;27544;-80
2021/01/29 04:48:24;;;;;;;6.30;3.77;;;;;;;-1.31;78.25;98886.34;1712174;82;26026;-80
2021/01/29 04:51:25;;;;;;;5.85;3.92;;;;;;;-1.32;78.28;98887.30;1679288;83;25925;-80
2021/01/29 04:54:31;;;;;;;7.30;3.50;;;;;;;-1.31;78.31;98888.14;1720939;82;25824;-80
2021/01/29 04:57:54;;;;;;;7.65;4.28;;;;;;;-1.36;78.28;98880.72;1715259;82;25875;-80
2021/01/29 05:01:02;;;;;;;6.80;3.52;;;;;;;-1.32;78.35;98886.48;1690033;83;28609;-80
2021/01/29 05:04:06;;;;;;;6.35;3.50;;;;;;;-1.29;78.46;98890.13;1698084;82;25770;-79
2021/01/29 05:07:10;;;;;;;8.48;4.17;;;;;;;-1.31;78.45;98882.41;1726047;82;25593;-80
2021/01/29 05:09:56;;;;;;;6.20;3.77;;;;;;;-1.25;78.46;98884.89;1670936;82;25804;-80
2021/01/29 05:12:31;;;;;;;8.35;4.45;;;;;;;-1.25;78.38;98890.98;1670594;83;25797;-81
2021/01/29 05:15:20;;;;;;;8.25;4.78;;;;;;;-1.24;78.35;98890.50;1667879;85;27336;-80
2021/01/29 05:18:07;;;;;;;18.70;9.10;;;;;;;-1.24;78.39;98886.55;1706035;83;25818;-80
2021/01/29 05:21:01;;;;;;;40.25;19.23;;;;;;;-1.24;78.39;98886.55;1709094;83;25646;-80
2021/01/29 05:24:00;;;;;;;20.23;11.75;;;;;;;-1.24;78.60;98887.36;1706407;83;25743;-80
2021/01/29 05:26:35;;;;;;;10.88;6.78;;;;;;;-1.23;78.72;98887.70;1674788;83;25930;-80
2021/01/29 05:29:43;;;;;;;8.90;5.87;;;;;;;-1.20;78.66;98890.04;1704536;83;27550;-80
2021/01/29 05:32:50;;;;;;;7.20;4.28;;;;;;;-1.20;78.66;98890.04;1662269;83;25943;-79
2021/01/29 05:35:38;;;;;;;11.78;4.78;;;;;;;-1.20;78.70;98891.35;1679109;83;25764;-80
2021/01/29 05:38:47;;;;;;;6.72;4.12;;;;;;;-1.18;78.65;98899.07;1667498;85;26415;-80
2021/01/29 05:41:54;;;;;;;9.00;5.10;;;;;;;-1.17;78.59;98895.45;1716152;83;25881;-80
2021/01/29 05:44:45;;;;;;;7.97;4.78;;;;;;;-1.15;78.67;98901.37;1699136;83;27560;-80
2021/01/29 05:47:37;;;;;;;7.33;4.33;;;;;;;-1.12;78.73;98901.91;1668583;83;26277;-80
2021/01/29 05:50:53;;;;;;;6.20;3.30;;;;;;;-1.09;78.74;98900.78;1653957;85;25851;-80
2021/01/29 05:54:05;;;;;;;10.28;4.50;;;;;;;-1.08;78.60;98913.75;1704877;83;25803;-81
2021/01/29 05:57:36;;;;;;;9.08;5.40;;;;;;;-1.02;78.62;98907.04;1822122;77;25549;-81
2021/01/29 06:00:18;;;;;;;13.45;7.22;;;;;;;-1.06;78.52;98916.22;1784573;80;26169;-81
2021/01/29 06:03:03;;;;;;;9.78;6.47;;;;;;;-1.08;78.44;98917.69;1760355;80;27336;-81
2021/01/29 06:06:08;;;;;;;7.05;4.62;;;;;;;-1.07;78.90;98927.72;1785453;80;26745;-81
2021/01/29 06:08:59;;;;;;;9.30;4.28;;;;;;;-1.07;78.90;98927.72;1762292;80;26443;-80
2021/01/29 06:11:59;;;;;;;9.83;5.47;;;;;;;-1.08;78.70;98927.37;1756989;80;25772;-81
2021/01/29 06:15:06;;;;;;;12.18;4.75;;;;;;;-1.10;78.65;98930.64;1780691;80;26060;-80
2021/01/29 06:18:07;;;;;;;11.00;7.30;;;;;;;-1.12;78.97;98925.55;1781363;80;27590;-81
2021/01/29 06:21:08;;;;;;;9.13;6.37;;;;;;;-1.11;78.91;98924.56;1760353;80;25867;-80
2021/01/29 06:24:04;;;;;;;9.20;6.33;;;;;;;-1.10;78.84;98922.76;1767163;80;25829;-80
2021/01/29 06:27:08;;;;;;;9.60;6.17;;;;;;;-1.11;78.85;98931.12;1762616;80;26176;-80
2021/01/29 06:29:56;;;;;;;7.65;5.33;;;;;;;-1.10;78.96;98930.64;1776011;80;25666;-80
2021/01/29 06:32:52;;;;;;;7.10;4.20;;;;;;;-1.12;78.86;98932.13;1784518;80;27744;-80
2021/01/29 06:36:07;;;;;;;10.75;8.05;;;;;;;-1.12;78.92;98925.55;1751428;80;25867;-80
2021/01/29 06:38:56;;;;;;;14.05;6.40;;;;;;;-1.12;79.04;98928.66;1781280;79;25916;-79
2021/01/29 06:42:05;;;;;;;15.80;7.35;;;;;;;-1.12;78.99;98929.97;1786294;80;25841;-80
2021/01/29 06:45:17;;;;;;;12.73;7.53;;;;;;;-1.06;78.99;98927.56;1822060;77;27822;-80
2021/01/29 06:48:27;;;;;;;22.55;12.37;;;;;;;-0.95;78.46;98931.25;1769223;80;25834;-80
2021/01/29 06:51:33;;;;;;;15.85;7.00;;;;;;;-0.98;78.67;98922.83;1745981;81;27331;-79
2021/01/29 06:54:18;;;;;;;25.05;13.78;;;;;;;-1.06;78.63;98914.91;1760208;80;25829;-80
2021/01/29 06:57:21;;;;;;;13.05;8.63;;;;;;;-1.02;78.79;98918.86;1738829;80;25882;-80
2021/01/29 07:00:22;;;;;;;16.75;11.38;;;;;;;-1.05;78.75;98916.05;1745087;80;26160;-80
2021/01/29 07:03:42;;;;;;;15.05;11.08;;;;;;;-1.04;78.85;98922.14;1749063;80;26251;-80
2021/01/29 07:06:25;;;;;;;14.98;9.58;;;;;;;-1.05;78.84;98919.19;1766613;80;27528;-80
2021/01/29 07:09:33;;;;;;;13.08;7.17;;;;;;;-1.05;78.84;98919.19;1752565;80;25846;-80
2021/01/29 07:12:27;;;;;;;12.05;6.55;;;;;;;-1.04;78.78;98912.94;1749962;80;26513;-80
2021/01/29 07:15:12;;;;;;;12.75;6.67;;;;;;;-1.05;78.79;98912.11;1748823;80;25354;-80
2021/01/29 07:17:45;;;;;;;13.70;6.70;;;;;;;-1.04;78.62;98907.20;1761168;80;26150;-80
2021/01/29 07:21:00;;;;;;;20.82;9.83;;;;;;;-1.04;78.62;98907.20;1718100;80;28583;-80
2021/01/29 07:23:37;;;;;;;11.05;5.85;;;;;;;-1.03;78.65;98902.30;1670215;83;26331;-81
2021/01/29 07:26:32;;;;;;;11.48;6.92;;;;;;;-1.01;78.69;98900.34;1686562;82;25872;-80
2021/01/29 07:29:29;;;;;;;9.58;4.95;;;;;;;-0.99;78.71;98902.80;1715730;81;25601;-80
2021/01/29 07:32:34;;;;;;;9.00;5.95;;;;;;;-0.97;78.71;98895.11;1727142;82;26084;-80
2021/01/29 07:35:40;;;;;;;12.60;6.40;;;;;;;-0.95;78.70;98887.05;1648984;86;27554;-80
2021/01/29 07:38:36;;;;;;;13.53;7.40;;;;;;;-0.93;78.67;98889.04;1685265;83;26455;-80
2021/01/29 07:41:35;;;;;;;12.53;8.10;;;;;;;-0.94;78.63;98886.89;1711240;83;26617;-80
2021/01/29 07:44:44;;;;;;;9.90;6.72;;;;;;;-0.94;78.60;98876.38;1690168;83;26184;-80
2021/01/29 07:47:27;;;;;;;17.07;10.25;;;;;;;-0.89;78.57;98878.55;1677419;83;26166;-81
2021/01/29 07:50:23;;;;;;;13.80;8.93;;;;;;;-0.87;78.31;98884.47;1642496;83;27609;-80
2021/01/29 07:52:56;;;;;;;10.82;7.12;;;;;;;-0.86;78.46;98883.50;1712279;83;25771;-81
2021/01/29 07:55:32;;;;;;;12.88;6.80;;;;;;;-0.83;78.47;98893.20;1696319;83;26539;-79
2021/01/29 07:58:23;;;;;;;11.85;5.72;;;;;;;-0.83;78.15;98885.80;1646548;82;25904;-81
2021/01/29 08:01:31;;;;;;;10.63;5.97;;;;;;;-0.84;78.15;98888.94;1698928;83;25861;-79
2021/01/29 08:04:11;;;;;;;11.45;6.08;;;;;;;-0.83;78.06;98887.11;1707260;83;27598;-79
2021/01/29 08:07:14;;;;;;;15.93;6.60;;;;;;;-0.80;78.14;98887.64;1710574;81;26134;-80
2021/01/29 08:09:43;;;;;;;12.75;6.22;;;;;;;-0.80;78.01;98882.88;1726247;81;25736;-80
2021/01/29 08:12:15;;;;;;;11.12;5.50;;;;;;;-0.77;78.00;98879.42;1707427;82;26495;-80
2021/01/29 08:15:19;;;;;;;10.00;6.53;;;;;;;-0.72;77.95;98884.22;1731594;81;25815;-80
2021/01/29 08:18:18;;;;;;;10.90;5.20;;;;;;;-0.71;77.36;98885.05;1712303;82;27557;-80
2021/01/29 08:21:00;;;;;;;10.03;5.53;;;;;;;-0.70;77.63;98884.05;1717227;82;25934;-78
2021/01/29 08:23:54;;;;;;;13.78;6.65;;;;;;;-0.68;77.70;98886.06;1715751;81;26491;-80
2021/01/29 08:26:33;;;;;;;11.55;5.70;;;;;;;-0.68;77.71;98880.28;1724150;82;25753;-80
2021/01/29 08:29:29;;;;;;;13.53;6.30;;;;;;;-0.65;77.29;98884.41;1748414;80;25834;-80
2021/01/29 08:32:54;;;;;;;13.08;6.37;;;;;;;-0.63;77.56;98874.08;1746611;80;27533;-80
2021/01/29 08:35:43;;;;;;;12.10;5.58;;;;;;;-0.62;77.25;98871.77;1731024;80;25860;-79
2021/01/29 08:38:24;;;;;;;13.20;8.30;;;;;;;-0.64;77.23;98864.53;1735485;81;25706;-80
2021/01/29 08:41:13;;;;;;;10.35;6.72;;;;;;;-0.62;77.20;98862.56;1710510;82;25800;-79
2021/01/29 08:44:07;;;;;;;10.18;5.78;;;;;;;-0.59;77.21;98871.46;1703158;83;25759;-79
2021/01/29 08:47:20;;;;;;;9.73;6.20;;;;;;;-0.56;77.24;98869.84;1718176;82;26289;-80
2021/01/29 08:50:01;;;;;;;13.30;7.10;;;;;;;-0.55;77.28;98864.90;1730796;82;26222;-79
2021/01/29 08:53:18;;;;;;;29.72;14.87;;;;;;;-0.51;77.05;98866.22;1732877;81;25744;-80
2021/01/29 08:56:12;;;;;;;16.37;11.05;;;;;;;-0.49;77.25;98867.41;1697675;83;25924;-79
2021/01/29 08:59:00;;;;;;;19.30;12.82;;;;;;;-0.49;77.25;98867.41;1672547;84;25865;-80
2021/01/29 09:02:02;;;;;;;15.43;9.98;;;;;;;-0.45;77.30;98870.05;1738112;81;27543;-80
2021/01/29 09:04:39;;;;;;;10.75;9.05;;;;;;;-0.44;76.90;98871.19;1704785;82;25773;-79
2021/01/29 09:07:18;;;;;;;15.00;7.70;;;;;;;-0.41;77.23;98874.83;1710994;82;26445;-81
2021/01/29 09:09:47;;;;;;;12.88;7.45;;;;;;;-0.38;76.85;98873.66;1680109;83;26460;-80
2021/01/29 09:12:25;;;;;;;14.87;8.05;;;;;;;-0.37;76.95;98874.01;1709102;82;25802;-81
2021/01/29 09:15:22;;;;;;;16.20;8.23;;;;;;;-0.37;76.92;98864.32;1704647;83;27786;-78
2021/01/29 09:17:55;;;;;;;10.18;6.12;;;;;;;-0.29;76.96;98864.34;1702769;83;25740;-79
2021/01/29 09:20:31;;;;;;;13.80;7.22;;;;;;;-0.26;76.37;98867.14;1691574;83;25842;-79
2021/01/29 09:23:04;;;;;;;13.05;6.97;;;;;;;-0.26;76.48;98869.29;1716716;82;25770;-80
2021/01/29 09:25:46;;;;;;;13.98;7.67;;;;;;;-0.26;75.73;98868.45;1707134;82;25805;-79
2021/01/29 09:28:36;;;;;;;12.90;6.75;;;;;;;-0.28;76.25;98869.91;1726243;82;27620;-78
2021/01/29 09:31:18;;;;;;;8.93;5.00;;;;;;;-0.27;75.91;98872.06;1702099;82;33735;-80
2021/01/29 09:33:59;;;;;;;13.80;8.13;;;;;;;-0.28;75.76;98869.11;1730303;82;25740;-79
2021/01/29 09:36:35;;;;;;;13.90;8.25;;;;;;;-0.28;76.10;98873.06;1702859;82;25837;-80
2021/01/29 09:42:09;;;;;;;12.30;7.20;;;;;;;-0.18;76.00;98868.47;1831787;77;25717;-78
2021/01/29 09:44:57;;;;;;;10.50;6.22;;;;;;;-0.23;76.08;98866.80;1777799;78;26276;-81
2021/01/29 09:47:28;;;;;;;13.78;7.78;;;;;;;-0.22;75.99;98869.30;1745672;80;27333;-79
2021/01/29 09:50:08;;;;;;;15.85;8.75;;;;;;;-0.23;75.88;98862.86;1780558;80;26388;-80
2021/01/29 09:52:58;;;;;;;21.20;10.48;;;;;;;-0.24;75.49;98874.38;1756154;80;25868;-80
2021/01/29 09:55:57;;;;;;;16.67;9.27;;;;;;;-0.26;75.65;98870.61;1752157;80;25805;-79
2021/01/29 09:58:59;;;;;;;16.48;10.23;;;;;;;-0.27;75.91;98869.43;1773340;80;26517;-79
2021/01/29 10:01:30;;;;;;;13.85;7.75;;;;;;;-0.28;75.92;98867.28;1781367;80;27587;-79
2021/01/29 10:04:20;;;;;;;15.30;9.55;;;;;;;-0.26;76.00;98857.45;1675018;83;25822;-79
2021/01/29 10:07:09;;;;;;;15.68;10.30;;;;;;;-0.23;75.88;98867.64;1699968;82;25697;-79
2021/01/29 10:09:43;;;;;;;15.23;9.73;;;;;;;-0.21;75.75;98859.09;1734726;81;25837;-79
2021/01/29 10:12:19;;;;;;;15.32;8.20;;;;;;;-0.17;76.00;98860.92;1744826;81;26254;-80
2021/01/29 10:15:10;;;;;;;22.62;9.70;;;;;;;-0.15;75.79;98864.22;1723380;80;27615;-79
2021/01/29 10:18:04;;;;;;;18.73;10.65;;;;;;;-0.10;75.94;98860.59;1743004;80;25838;-79
2021/01/29 10:20:35;;;;;;;18.52;9.93;;;;;;;-0.07;75.60;98858.97;1716805;81;26504;-79
2021/01/29 10:23:27;;;;;;;19.15;10.53;;;;;;;-0.05;75.35;98863.09;1700382;82;26011;-80
2021/01/29 10:26:15;;;;;;;15.53;8.63;;;;;;;-0.05;75.31;98857.83;1718107;82;26087;-79
2021/01/29 10:29:07;;;;;;;17.57;11.05;;;;;;;-0.04;75.29;98863.40;1700011;82;26739;-79
2021/01/29 10:31:52;;;;;;;19.17;9.93;;;;;;;-0.09;75.32;98860.45;1727772;81;26699;-80
2021/01/29 10:34:48;;;;;;;18.90;10.48;;;;;;;-0.13;75.33;98866.99;1740841;81;25938;-80
2021/01/29 10:37:48;;;;;;;14.45;9.65;;;;;;;-0.15;75.31;98862.38;1745760;81;25955;-79
2021/01/29 10:40:42;;;;;;;16.75;9.35;;;;;;;-0.15;75.50;98865.53;1692429;84;25800;-79
2021/01/29 10:43:21;;;;;;;19.15;9.98;;;;;;;-0.15;75.65;98862.91;1678959;84;27134;-79
2021/01/29 10:46:15;;;;;;;21.62;10.65;;;;;;;-0.15;75.74;98854.48;1745568;81;25760;-79
2021/01/29 10:48:51;;;;;;;14.10;7.83;;;;;;;-0.13;75.53;98863.56;1722101;81;25752;-79
2021/01/29 10:51:30;;;;;;;16.42;9.13;;;;;;;-0.19;75.12;98855.80;1675403;83;25802;-80
2021/01/29 10:54:02;;;;;;;22.37;11.60;;;;;;;-0.20;75.22;98857.28;1690834;83;25884;-79
2021/01/29 10:56:41;;;;;;;20.27;10.05;;;;;;;-0.18;75.63;98856.63;1724337;83;29758;-81
2021/01/29 10:59:32;;;;;;;17.10;10.45;;;;;;;-0.17;75.82;98855.14;1706198;84;25779;-81
2021/01/29 11:02:04;;;;;;;20.88;13.28;;;;;;;-0.13;75.82;98863.56;1729823;81;25739;-79
2021/01/29 11:04:42;;;;;;;23.65;13.10;;;;;;;-0.11;75.52;98858.96;1696928;84;25828;-80
2021/01/29 11:07:28;;;;;;;23.10;13.32;;;;;;;-0.12;75.38;98864.70;1684486;84;25923;-81
2021/01/29 11:09:59;;;;;;;57.40;28.65;;;;;;;-0.13;75.13;98856.47;1712963;83;27538;-82
2021/01/29 11:12:57;;;;;;;55.28;25.92;;;;;;;-0.10;75.52;98859.27;1855246;76;25842;-82
2021/01/29 11:15:42;;;;;;;33.73;19.67;;;;;;;-0.15;75.45;98862.91;1837203;77;25811;-82
2021/01/29 11:18:41;;;;;;;;;;;;;;;;;;;;;
2021/01/29 11:21:43;;;;;;;30.43;19.53;;;;;;;-0.07;75.52;98859.80;1804178;75;28769;-82
2021/01/29 11:24:28;;;;;;;27.00;17.82;;;;;;;0.09;75.10;98859.45;1741967;81;25832;-83
2021/01/29 11:27:23;;;;;;;24.80;14.18;;;;;;;0.03;75.29;98858.80;1742197;80;27783;-82
2021/01/29 11:30:17;;;;;;;16.20;10.45;;;;;;;0.04;75.37;98861.77;1714585;81;25791;-82
2021/01/29 11:32:59;;;;;;;19.82;10.18;;;;;;;0.02;74.87;98863.27;1763794;80;25902;-82
2021/01/29 11:35:40;;;;;;;18.15;11.35;;;;;;;-0.01;75.12;98867.03;1749019;80;25753;-82
2021/01/29 11:38:28;;;;;;;23.45;13.62;;;;;;;-0.01;75.02;98873.61;1682379;81;25399;-82
2021/01/29 11:41:30;;;;;;;56.37;31.30;;;;;;;-0.01;75.38;98879.36;1758704;80;27543;-82
2021/01/29 11:44:37;;;;;;;34.63;21.25;;;;;;;0.00;75.44;98881.03;1714118;80;25908;-82
2021/01/29 11:47:25;;;;;;;24.87;14.55;;;;;;;0.02;75.22;98878.22;1713682;82;25883;-82
2021/01/29 11:50:20;;;;;;;28.98;16.25;;;;;;;0.00;75.24;98871.81;1743059;80;26133;-82
2021/01/29 11:53:01;;;;;;;21.15;11.03;;;;;;;0.04;75.42;98874.94;1741139;81;25365;-83
2021/01/29 11:55:33;;;;;;;18.02;10.95;;;;;;;0.06;75.22;98875.59;1728903;81;27680;-82
2021/01/29 11:58:33;;;;;;;17.98;11.40;;;;;;;0.02;75.05;98867.21;1721121;82;26189;-83
2021/01/29 12:01:20;;;;;;;17.57;11.73;;;;;;;0.00;75.36;98871.30;1708556;82;25861;-82
2021/01/29 12:04:11;;;;;;;15.45;8.73;;;;;;;-0.03;75.12;98871.64;1734616;82;25931;-83
2021/01/29 12:07:05;;;;;;;20.60;11.70;;;;;;;-0.01;75.12;98868.84;1833471;78;25657;-82
2021/01/29 12:09:46;;;;;;;19.87;11.85;;;;;;;-0.07;75.21;98870.80;1743743;80;25796;-83
2021/01/29 12:12:26;;;;;;;22.65;12.65;;;;;;;-0.12;74.90;98866.02;1762658;80;28317;-82
2021/01/29 12:15:20;;;;;;;20.97;12.28;;;;;;;-0.13;75.18;98858.30;1763884;78;26075;-83
2021/01/29 12:17:57;;;;;;;18.95;11.55;;;;;;;-0.14;75.07;98864.05;1792895;78;25943;-83
2021/01/29 12:20:31;;;;;;;20.75;11.40;;;;;;;-0.08;75.32;98860.77;1766862;78;25833;-82
2021/01/29 12:23:19;;;;;;;20.12;11.60;;;;;;;-0.04;75.12;98867.83;1739894;78;25968;-83
2021/01/29 12:26:10;;;;;;;19.27;11.60;;;;;;;-0.03;74.78;98871.64;1776476;78;28499;-83
2021/01/29 12:29:28;;;;;;;37.30;17.00;;;;;;;0.00;75.24;98866.03;1774241;80;25787;-83
2021/01/29 12:32:19;;;;;;;16.85;9.70;;;;;;;0.05;74.87;98866.03;1754891;80;25752;-83
2021/01/29 12:34:55;;;;;;;16.40;9.88;;;;;;;0.02;74.66;98858.00;1776209;78;25943;-82
2021/01/29 12:37:33;;;;;;;16.87;10.23;;;;;;;0.00;74.64;98858.14;1802127;77;25819;-82
2021/01/29 12:40:35;;;;;;;48.92;21.77;;;;;;;0.01;74.68;98857.66;1748155;78;27585;-82
2021/01/29 12:43:25;;;;;;;39.83;20.60;;;;;;;0.02;74.53;98859.80;1767257;78;25920;-83
2021/01/29 12:46:10;;;;;;;34.00;17.23;;;;;;;-0.04;74.35;98862.09;1789384;78;25951;-81
2021/01/29 12:49:04;;;;;;;44.58;23.38;;;;;;;-0.03;74.52;98857.65;1767139;78;26182;-81
2021/01/29 12:51:57;;;;;;;25.27;16.37;;;;;;;-0.01;74.94;98863.57;1794602;78;26170;-82
2021/01/29 12:55:06;;;;;;;22.85;13.93;;;;;;;0.03;74.99;98863.58;1764534;78;27553;-83
2021/01/29 12:57:34;;;;;;;19.82;12.90;;;;;;;0.06;74.94;98860.63;1774688;78;25815;-83
2021/01/29 13:00:38;;;;;;;22.77;10.70;;;;;;;0.09;75.05;98856.34;1776349;78;25810;-84
2021/01/29 13:03:32;;;;;;;19.85;10.55;;;;;;;0.13;75.03;98853.70;1746164;80;26464;-84
2021/01/29 13:06:13;;;;;;;16.55;8.63;;;;;;;0.14;74.77;98851.42;1743744;80;25773;-83
2021/01/29 13:08:46;;;;;;;17.60;11.35;;;;;;;0.18;74.63;98844.01;1742818;80;27345;-82